Terminal Aerodrome Forecast
Issued by NWS

Home | Current Version | Previous Version | Graphics & Text | Print | Product List | Glossary On
Versions: 1 2 3 4 5 6 7 8 9 10 11 12 13 14 15 16 17 18 19 20 21 22
284
FTUS43 KIWX 221722 AAB
TAFSBN
TAF AMD
KSBN 221722Z 2217/2318 30010KT P6SM BKN050
     FM230100 VRB03KT P6SM BKN100
     FM230700 00000KT P6SM BKN150
     FM231400 31005KT P6SM SCT150=

USA.gov is the U.S. government's official web portal to all federal, state and local government web resources and services.